Time;durP1;ratioP1;P1;durP2;ratioP2;P2;SDS_P1;SDS_P2;PMS_P1;PMS_P2;Temp;Humidity;BMP_temperature;BMP_pressure;BME280_temperature;BME280_humidity;BME280_pressure;Samples;Min_cycle;Max_cycle;Signal;HPM_P1;HPM_P2
2022/03/18 00:02:06;;;;;;;7.80;4.50;;;;;;;3.29;77.29;96419.22;5084009;28;20166;-87
2022/03/18 00:04:31;;;;;;;9.63;5.60;;;;;;;3.02;76.85;96363.34;5081014;28;20216;-85
2022/03/18 00:06:57;;;;;;;7.17;4.63;;;;;;;2.91;76.43;96333.97;5055236;28;20598;-86
2022/03/18 00:09:22;;;;;;;6.70;5.33;;;;;;;3.27;76.69;96414.16;5055625;28;20174;-86
2022/03/18 00:11:48;;;;;;;7.50;5.23;;;;;;;3.27;77.05;96413.34;5073879;28;20575;-86
2022/03/18 00:14:14;;;;;;;8.27;5.57;;;;;;;3.27;76.26;96387.31;5087739;28;20651;-86
2022/03/18 00:16:40;;;;;;;10.57;5.23;;;;;;;3.47;76.18;96427.25;5082586;28;20672;-86
2022/03/18 00:19:06;;;;;;;8.10;5.63;;;;;;;2.87;75.96;96348.97;5072296;28;20247;-86
2022/03/18 00:21:31;;;;;;;8.53;5.43;;;;;;;2.93;76.15;96384.06;5071940;28;20218;-86
2022/03/18 00:23:58;;;;;;;7.80;4.90;;;;;;;2.71;76.06;96364.19;5072158;28;20166;-86
2022/03/18 00:26:23;;;;;;;7.57;5.43;;;;;;;2.86;76.93;96381.13;5070834;28;20601;-86
2022/03/18 00:28:49;;;;;;;6.77;4.97;;;;;;;2.59;77.04;96363.44;5072405;28;20202;-86
2022/03/18 00:31:14;;;;;;;6.93;4.83;;;;;;;2.43;77.64;96350.00;5054998;28;20540;-87
2022/03/18 00:33:40;;;;;;;7.03;5.23;;;;;;;2.61;77.68;96363.28;5072661;28;20234;-87
2022/03/18 00:36:06;;;;;;;8.60;5.40;;;;;;;2.92;77.23;96405.84;5054820;28;20186;-87
2022/03/18 00:38:31;;;;;;;9.27;6.10;;;;;;;2.64;77.26;96373.44;5054758;28;20254;-87
2022/03/18 00:40:58;;;;;;;9.00;5.83;;;;;;;3.18;77.36;96440.09;5036414;28;20198;-87
2022/03/18 00:43:23;;;;;;;9.93;6.80;;;;;;;2.83;76.78;96399.59;5053885;28;20658;-87
2022/03/18 00:45:49;;;;;;;8.67;5.67;;;;;;;2.88;76.57;96389.66;5054112;28;20197;-87
2022/03/18 00:53:43;;;;;;;10.07;5.77;;;;;;;2.52;76.08;96351.88;5072890;28;20173;-86
2022/03/18 00:56:08;;;;;;;9.10;6.50;;;;;;;3.02;77.00;96430.97;5072434;28;20158;-87
2022/03/18 00:58:34;;;;;;;10.60;6.27;;;;;;;2.85;77.20;96405.50;5072710;28;20158;-86
2022/03/18 01:00:59;;;;;;;11.10;6.90;;;;;;;2.62;76.44;96370.97;5072714;28;20307;-86
2022/03/18 01:03:25;;;;;;;10.70;6.40;;;;;;;2.74;75.95;96415.13;5072503;28;20530;-86
2022/03/18 01:05:50;;;;;;;11.17;6.07;;;;;;;3.17;75.75;96472.28;5054360;28;20261;-86
2022/03/18 01:08:16;;;;;;;10.53;6.80;;;;;;;2.70;75.79;96390.31;5054129;28;20198;-86
2022/03/18 01:10:41;;;;;;;9.40;6.27;;;;;;;2.56;77.01;96414.81;5072523;28;20528;-85
2022/03/18 01:13:07;;;;;;;10.63;6.73;;;;;;;2.68;76.93;96432.06;5054159;28;20216;-86
2022/03/18 01:15:33;;;;;;;11.30;7.00;;;;;;;2.33;77.05;96371.69;5072330;28;20166;-86
2022/03/18 01:17:59;;;;;;;11.27;6.70;;;;;;;2.63;76.87;96424.59;5086000;28;20559;-86
2022/03/18 01:20:25;;;;;;;9.17;6.43;;;;;;;2.68;76.34;96418.22;5053555;28;20167;-87
2022/03/18 01:22:51;;;;;;;9.70;6.40;;;;;;;2.27;76.16;96334.00;5053650;28;20247;-86
2022/03/18 01:25:17;;;;;;;10.90;6.50;;;;;;;2.98;75.05;96444.34;5071565;28;20174;-86
2022/03/18 01:27:42;;;;;;;10.20;6.27;;;;;;;2.94;73.95;96427.34;5053849;28;20233;-87
2022/03/18 01:30:09;;;;;;;9.30;6.43;;;;;;;2.91;73.98;96407.59;5067779;28;20571;-86
2022/03/18 01:32:34;;;;;;;10.00;6.17;;;;;;;2.96;73.81;96426.25;5053049;28;20218;-86
2022/03/18 01:35:00;;;;;;;10.60;6.00;;;;;;;3.13;73.25;96463.06;5053600;28;20171;-86
2022/03/18 01:37:26;;;;;;;8.80;5.33;;;;;;;2.65;72.58;96404.53;5053602;28;20643;-87
2022/03/18 01:39:51;;;;;;;9.37;6.00;;;;;;;2.40;72.31;96380.63;5069950;28;20228;-86
2022/03/18 01:42:17;;;;;;;9.43;6.30;;;;;;;2.45;72.84;96383.66;5071349;28;20651;-86
2022/03/18 01:44:44;;;;;;;9.50;5.60;;;;;;;2.57;70.91;96425.09;5071227;28;20171;-86
2022/03/18 01:47:10;;;;;;;8.57;5.70;;;;;;;2.58;71.94;96434.56;5071497;28;20202;-86
2022/03/18 01:49:37;;;;;;;9.83;5.73;;;;;;;2.45;71.92;96409.66;5053968;28;20261;-86
2022/03/18 01:52:05;;;;;;;12.63;5.77;;;;;;;2.38;72.28;96398.09;5071934;28;20166;-87
2022/03/18 01:54:49;;;;;;;10.10;5.60;;;;;;;2.12;71.94;96374.19;5053823;28;20552;-87
2022/03/18 01:57:22;;;;;;;12.83;6.10;;;;;;;2.74;71.62;96464.53;5075018;28;20170;-86
2022/03/18 01:59:51;;;;;;;11.07;6.03;;;;;;;2.82;71.46;96475.13;5056967;28;20714;-87
2022/03/18 02:02:17;;;;;;;10.10;5.67;;;;;;;2.65;70.52;96440.91;5057027;28;20186;-86
2022/03/18 02:04:44;;;;;;;9.57;5.67;;;;;;;2.83;69.22;96476.78;5056663;28;20190;-87
2022/03/18 02:07:11;;;;;;;9.00;6.00;;;;;;;2.84;68.55;96492.28;5056921;28;20200;-87
2022/03/18 02:09:38;;;;;;;7.87;5.77;;;;;;;2.82;68.45;96480.34;5073431;28;20560;-86
2022/03/18 02:12:05;;;;;;;9.40;5.60;;;;;;;2.80;68.26;96484.81;5057010;28;20564;-87
2022/03/18 02:14:45;;;;;;;7.43;5.20;;;;;;;2.73;68.38;96476.69;5074687;28;20179;-87
2022/03/18 02:17:13;;;;;;;11.93;5.80;;;;;;;2.59;68.28;96474.38;5075612;28;20185;-86
2022/03/18 02:19:40;;;;;;;8.57;5.70;;;;;;;2.44;69.27;96450.41;5057622;28;20177;-87
2022/03/18 02:22:10;;;;;;;11.93;6.07;;;;;;;2.54;69.21;96471.28;5075417;28;20528;-87
2022/03/18 02:24:41;;;;;;;9.40;5.37;;;;;;;2.39;69.48;96455.16;5075450;28;20159;-87
2022/03/18 02:27:07;;;;;;;11.47;6.30;;;;;;;2.39;69.26;96431.78;5075434;28;20210;-86
2022/03/18 02:29:33;;;;;;;10.27;5.17;;;;;;;2.43;69.82;96435.75;5075211;28;20197;-87
2022/03/18 02:32:00;;;;;;;14.70;6.27;;;;;;;2.44;69.53;96428.78;5085812;28;20235;-86
2022/03/18 02:34:27;;;;;;;10.23;5.43;;;;;;;2.47;71.10;96470.13;5079331;28;20233;-87
2022/03/18 02:36:53;;;;;;;11.00;6.50;;;;;;;2.25;72.08;96445.81;5057099;28;20189;-87
2022/03/18 02:39:18;;;;;;;9.97;5.80;;;;;;;1.86;72.93;96400.44;5075633;28;20162;-85
2022/03/18 02:41:44;;;;;;;12.20;5.90;;;;;;;2.07;73.14;96423.09;5056869;28;20662;-86
2022/03/18 02:44:10;;;;;;;10.77;5.80;;;;;;;2.05;73.18;96417.19;5086836;28;20178;-86
2022/03/18 02:46:35;;;;;;;8.83;5.90;;;;;;;2.28;72.90;96434.38;5059170;28;20186;-86
2022/03/18 02:49:02;;;;;;;11.10;6.47;;;;;;;2.24;73.24;96440.78;5073811;28;20202;-86
2022/03/18 02:51:28;;;;;;;10.03;5.70;;;;;;;1.54;74.22;96328.63;5055909;28;20973;-86
2022/03/18 02:53:55;;;;;;;9.40;6.80;;;;;;;2.30;73.77;96455.88;5056039;28;20179;-86
2022/03/18 02:56:21;;;;;;;8.57;5.90;;;;;;;2.56;75.01;96504.03;5074285;28;20189;-86
2022/03/18 02:58:46;;;;;;;8.40;5.67;;;;;;;2.30;75.26;96468.88;5074218;28;20605;-86
2022/03/18 03:01:12;;;;;;;12.47;7.10;;;;;;;2.24;74.99;96466.75;5074065;28;20182;-85
2022/03/18 03:03:37;;;;;;;9.67;6.63;;;;;;;2.51;75.73;96511.34;5056320;28;20179;-86
2022/03/18 03:08:46;;;;;;;9.37;6.60;;;;;;;2.22;75.21;96476.44;5074474;28;20639;-87
2022/03/18 03:11:12;;;;;;;14.30;6.93;;;;;;;2.21;76.09;96485.16;5074381;28;20253;-87
2022/03/18 03:13:37;;;;;;;9.40;7.37;;;;;;;2.33;76.28;96520.59;5074611;28;20167;-87
2022/03/18 03:16:03;;;;;;;10.87;6.97;;;;;;;2.24;75.05;96516.94;5073715;28;20555;-87
2022/03/18 03:18:29;;;;;;;10.43;6.87;;;;;;;1.97;75.81;96495.69;5055397;28;20210;-87
2022/03/18 03:20:55;;;;;;;12.00;7.17;;;;;;;1.60;76.05;96450.09;5073011;28;20207;-86
2022/03/18 03:23:23;;;;;;;10.67;7.13;;;;;;;1.90;76.26;96505.69;5073372;28;20722;-86
2022/03/18 03:25:50;;;;;;;9.13;6.40;;;;;;;1.90;76.44;96512.69;5073733;28;20210;-86
2022/03/18 03:28:17;;;;;;;8.53;6.13;;;;;;;1.84;75.29;96477.59;5053773;28;20206;-88
2022/03/18 03:30:42;;;;;;;8.30;5.67;;;;;;;2.10;74.87;96530.16;5055360;28;20265;-88
2022/03/18 03:33:08;;;;;;;8.50;5.20;;;;;;;1.65;73.94;96464.38;5055711;28;20225;-87
2022/03/18 03:35:33;;;;;;;11.17;6.40;;;;;;;2.02;74.23;96518.69;5073917;28;20208;-87
2022/03/18 03:37:59;;;;;;;7.97;5.87;;;;;;;1.73;73.47;96469.00;5073508;28;20654;-87
2022/03/18 03:40:25;;;;;;;9.93;6.43;;;;;;;1.95;74.33;96510.53;5056038;28;20166;-87
2022/03/18 03:42:52;;;;;;;9.97;6.27;;;;;;;2.07;73.99;96530.41;5073678;28;20678;-87
2022/03/18 03:45:17;;;;;;;9.80;6.63;;;;;;;2.00;74.85;96520.56;5055898;28;20625;-86
2022/03/18 03:47:43;;;;;;;11.70;6.93;;;;;;;1.98;75.27;96515.50;5069481;28;20225;-86
2022/03/18 03:50:09;;;;;;;11.97;6.73;;;;;;;2.18;74.99;96551.16;5055006;28;20331;-86
2022/03/18 03:52:35;;;;;;;10.40;6.70;;;;;;;1.89;75.22;96526.59;5055671;28;20205;-88
2022/03/18 03:55:02;;;;;;;12.47;7.43;;;;;;;2.19;75.23;96559.78;5055636;28;20663;-88
2022/03/18 03:57:28;;;;;;;10.80;7.47;;;;;;;1.87;76.04;96507.72;5055366;28;20662;-86
2022/03/18 03:59:54;;;;;;;10.50;7.23;;;;;;;2.03;75.50;96530.72;5069173;28;20182;-86
2022/03/18 04:02:20;;;;;;;12.23;7.73;;;;;;;2.14;75.32;96546.34;5072802;28;20173;-86
2022/03/18 04:04:47;;;;;;;9.83;6.90;;;;;;;1.90;75.21;96523.06;5072363;28;20175;-86
2022/03/18 04:07:12;;;;;;;15.27;7.77;;;;;;;2.02;76.16;96544.66;5055127;28;20588;-87
2022/03/18 04:09:38;;;;;;;11.40;7.43;;;;;;;2.04;76.28;96550.56;5073030;28;20659;-86
2022/03/18 04:12:04;;;;;;;11.63;7.40;;;;;;;2.20;75.13;96577.84;5054507;28;20332;-87
2022/03/18 04:14:29;;;;;;;12.57;8.07;;;;;;;2.22;74.79;96575.16;5071468;28;20221;-86
2022/03/18 04:16:55;;;;;;;10.43;7.43;;;;;;;1.84;74.95;96526.94;5054085;28;20202;-87
2022/03/18 04:19:20;;;;;;;11.50;7.63;;;;;;;2.12;73.96;96550.81;5053292;28;20193;-86
2022/03/18 04:21:46;;;;;;;12.13;7.87;;;;;;;1.89;73.66;96514.44;5072859;28;20205;-88
2022/03/18 04:24:11;;;;;;;12.43;7.13;;;;;;;1.98;73.51;96522.47;5073113;28;20566;-88
2022/03/18 04:26:37;;;;;;;13.03;6.47;;;;;;;1.76;72.46;96505.09;5073141;28;20186;-86
2022/03/18 04:29:02;;;;;;;9.73;6.50;;;;;;;1.59;73.04;96534.06;5054793;28;20667;-86
2022/03/18 04:31:28;;;;;;;11.93;6.70;;;;;;;1.81;74.19;96592.09;5072735;28;20187;-86
2022/03/18 04:33:53;;;;;;;10.27;6.00;;;;;;;1.79;74.49;96596.56;5072817;28;20244;-86
2022/03/18 04:36:18;;;;;;;12.47;6.07;;;;;;;1.51;72.55;96538.06;5054909;28;20649;-85
2022/03/18 04:38:44;;;;;;;10.20;6.63;;;;;;;1.34;73.62;96528.13;5073052;28;20545;-86
2022/03/18 04:41:09;;;;;;;12.90;6.47;;;;;;;1.57;72.80;96574.88;5072650;28;20608;-86
2022/03/18 04:43:35;;;;;;;8.17;5.63;;;;;;;1.32;73.63;96537.75;5071689;28;20287;-86
2022/03/18 04:46:00;;;;;;;8.23;5.80;;;;;;;1.25;73.33;96525.38;5071529;28;20167;-86
2022/03/18 04:48:26;;;;;;;9.13;5.73;;;;;;;1.60;73.33;96565.09;5071656;28;20327;-86
2022/03/18 04:50:51;;;;;;;8.20;6.00;;;;;;;1.86;72.96;96597.75;5071983;28;20209;-85
2022/03/18 04:53:17;;;;;;;9.33;5.37;;;;;;;1.44;72.56;96552.44;5072869;28;20158;-87
2022/03/18 04:55:42;;;;;;;9.23;6.03;;;;;;;1.55;72.55;96559.44;5073800;28;20174;-87
2022/03/18 04:58:08;;;;;;;8.83;5.43;;;;;;;1.33;72.57;96507.47;5073973;28;20161;-88
2022/03/18 05:00:35;;;;;;;10.77;6.30;;;;;;;1.82;71.67;96582.50;5075543;28;20216;-86
2022/03/18 05:03:01;;;;;;;12.70;6.73;;;;;;;1.68;71.45;96552.38;5071761;28;20178;-84
2022/03/18 05:05:27;;;;;;;9.63;6.33;;;;;;;1.56;71.11;96532.53;5073516;28;20177;-86
2022/03/18 05:07:52;;;;;;;10.10;6.83;;;;;;;1.70;72.19;96565.25;5055049;28;20202;-86
2022/03/18 05:10:18;;;;;;;9.93;6.93;;;;;;;1.63;72.07;96541.53;5072766;28;20552;-85
2022/03/18 05:12:45;;;;;;;8.60;5.97;;;;;;;2.00;71.32;96621.84;5072390;28;20272;-86
2022/03/18 05:15:11;;;;;;;11.27;6.77;;;;;;;1.80;72.29;96615.56;5087614;28;20173;-86
2022/03/18 05:17:38;;;;;;;8.93;6.13;;;;;;;1.87;73.39;96624.53;5054115;28;20170;-86
2022/03/18 05:20:05;;;;;;;13.50;6.90;;;;;;;1.87;73.25;96617.59;5053387;28;20182;-86
2022/03/18 05:22:34;;;;;;;13.27;6.53;;;;;;;1.87;72.84;96617.59;5071476;28;20181;-86
2022/03/18 05:25:00;;;;;;;9.43;6.33;;;;;;;2.07;73.00;96623.06;5053451;28;20697;-85
2022/03/18 05:27:26;;;;;;;11.83;7.10;;;;;;;1.87;72.45;96604.59;5052874;28;20198;-86
2022/03/18 05:29:51;;;;;;;9.07;6.40;;;;;;;1.86;72.47;96599.50;5075218;28;20646;-86
2022/03/18 05:32:18;;;;;;;10.60;6.60;;;;;;;2.16;72.88;96628.38;5060481;28;20650;-85
2022/03/18 05:34:43;;;;;;;11.37;6.97;;;;;;;1.58;71.22;96525.47;5060348;28;20178;-86
2022/03/18 05:37:10;;;;;;;11.77;6.27;;;;;;;2.40;70.29;96581.53;5078280;28;20181;-85
2022/03/18 05:39:37;;;;;;;16.17;7.00;;;;;;;3.21;68.24;96630.59;5079084;28;20617;-85
2022/03/18 05:42:04;;;;;;;9.17;6.53;;;;;;;3.75;65.53;96638.38;5061502;28;20212;-85
2022/03/18 05:44:29;;;;;;;11.87;6.87;;;;;;;4.40;63.79;96641.72;5059450;28;20196;-87
2022/03/18 05:46:55;;;;;;;9.73;5.97;;;;;;;4.73;62.05;96597.13;5059790;28;20651;-88
2022/03/18 05:49:21;;;;;;;10.60;6.10;;;;;;;5.33;58.22;96605.81;5078057;28;20178;-87
2022/03/18 05:51:47;;;;;;;9.67;5.43;;;;;;;6.43;55.85;96654.22;5078304;28;20178;-84
2022/03/18 05:54:12;;;;;;;9.03;5.97;;;;;;;7.22;53.23;96652.03;5078059;28;20182;-85
2022/03/18 05:56:54;;;;;;;8.47;5.63;;;;;;;7.90;50.93;96661.13;5077568;28;20189;-84
2022/03/18 05:59:32;;;;;;;10.10;6.37;;;;;;;6.89;51.39;96642.13;5076749;28;20158;-85
2022/03/18 06:01:59;;;;;;;9.47;5.43;;;;;;;6.41;53.35;96656.16;5057401;28;20268;-85
2022/03/18 06:04:25;;;;;;;8.50;4.80;;;;;;;5.62;55.10;96642.41;5076276;28;20170;-85
2022/03/18 06:06:51;;;;;;;7.40;5.43;;;;;;;5.12;57.11;96663.31;5078319;28;20223;-85
2022/03/18 06:12:03;;;;;;;9.97;5.67;;;;;;;3.86;59.00;96640.13;5077743;28;20185;-84
2022/03/18 06:14:30;;;;;;;10.10;5.83;;;;;;;3.27;61.62;96643.16;5059192;28;20174;-84
2022/03/18 06:17:00;;;;;;;8.03;5.80;;;;;;;3.12;62.45;96654.75;5078696;28;20221;-84
2022/03/18 06:19:28;;;;;;;6.97;4.53;;;;;;;2.69;62.47;96643.44;5074601;28;20687;-84
2022/03/18 06:21:53;;;;;;;11.13;4.70;;;;;;;2.35;63.35;96640.81;5077957;28;20252;-84
2022/03/18 06:24:20;;;;;;;8.27;5.73;;;;;;;2.49;65.58;96686.56;5060193;28;20250;-84
2022/03/18 06:26:47;;;;;;;10.63;5.70;;;;;;;2.11;66.70;96643.50;5061064;28;20174;-84
2022/03/18 06:29:12;;;;;;;9.43;5.73;;;;;;;2.39;67.55;96694.22;5081425;28;20228;-85
2022/03/18 06:31:41;;;;;;;14.10;6.43;;;;;;;2.19;67.67;96679.28;5073439;28;20719;-85
2022/03/18 06:34:08;;;;;;;8.80;5.40;;;;;;;1.88;68.17;96652.16;5056861;28;20241;-84
2022/03/18 06:36:34;;;;;;;10.30;5.33;;;;;;;1.80;67.94;96644.94;5077605;28;20219;-84
2022/03/18 06:39:00;;;;;;;10.73;5.90;;;;;;;3.17;67.00;96711.66;5077458;28;20169;-88
2022/03/18 06:41:26;;;;;;;10.13;5.63;;;;;;;3.67;61.96;96648.59;5057210;28;20174;-83
2022/03/18 06:43:52;;;;;;;9.00;5.27;;;;;;;3.74;60.44;96729.66;5056944;28;20175;-83
2022/03/18 06:46:18;;;;;;;9.07;5.43;;;;;;;3.17;61.40;96644.00;5074855;28;20220;-86
2022/03/18 06:48:44;;;;;;;11.33;4.93;;;;;;;3.06;62.68;96665.66;5056698;28;20269;-85
2022/03/18 06:51:11;;;;;;;8.50;5.20;;;;;;;3.66;62.52;96726.81;5056327;28;20190;-85
2022/03/18 06:53:37;;;;;;;9.33;6.20;;;;;;;4.45;59.58;96666.44;5073733;28;20162;-85
2022/03/18 06:56:06;;;;;;;7.57;5.50;;;;;;;4.63;55.75;96656.25;5055785;28;20574;-86
2022/03/18 06:58:33;;;;;;;9.13;5.00;;;;;;;4.32;54.80;96693.69;5074115;28;20163;-85
2022/03/18 07:00:58;;;;;;;6.77;5.17;;;;;;;4.12;55.15;96690.91;5056613;28;20170;-85
2022/03/18 07:03:24;;;;;;;4.77;3.80;;;;;;;3.80;52.85;96700.53;5074538;28;20248;-85
2022/03/18 07:05:49;;;;;;;6.20;4.00;;;;;;;3.64;53.27;96731.31;5054920;28;20201;-85
2022/03/18 07:08:15;;;;;;;9.13;4.37;;;;;;;3.32;55.65;96716.47;5072950;28;20202;-85
2022/03/18 07:10:41;;;;;;;13.93;5.07;;;;;;;3.66;57.20;96752.88;5073269;28;20579;-85
2022/03/18 07:13:06;;;;;;;7.50;4.60;;;;;;;4.37;53.33;96720.19;5073236;28;20171;-86
2022/03/18 07:15:32;;;;;;;9.40;4.50;;;;;;;5.40;51.01;96739.25;5074225;28;20213;-84
2022/03/18 07:18:01;;;;;;;6.03;4.20;;;;;;;6.01;48.21;96696.38;5056119;28;20582;-85
2022/03/18 07:20:34;;;;;;;9.73;4.63;;;;;;;7.50;46.11;96768.16;5074074;28;20246;-84
2022/03/18 07:23:08;;;;;;;8.83;4.40;;;;;;;7.37;45.62;96770.25;5056098;28;20257;-85
2022/03/18 07:25:37;;;;;;;5.83;4.23;;;;;;;6.77;45.60;96759.25;5056161;28;20645;-85
2022/03/18 07:28:10;;;;;;;5.83;3.73;;;;;;;6.57;46.13;96750.63;5073633;28;20206;-85
2022/03/18 07:30:37;;;;;;;5.40;3.67;;;;;;;6.59;43.51;96790.53;5056050;28;20643;-84
2022/03/18 07:33:03;;;;;;;6.90;4.07;;;;;;;6.68;43.60;96778.41;5064611;28;20226;-83
2022/03/18 07:35:29;;;;;;;4.43;3.17;;;;;;;6.44;42.73;96774.44;5079455;28;20151;-85
2022/03/18 07:37:54;;;;;;;5.60;3.77;;;;;;;6.23;43.16;96734.50;5073717;28;20178;-85
2022/03/18 07:40:20;;;;;;;8.00;3.73;;;;;;;6.70;43.06;96763.41;5073817;28;20688;-85
2022/03/18 07:42:50;;;;;;;9.37;3.77;;;;;;;6.58;42.36;96743.56;5073426;28;20540;-84
2022/03/18 07:45:27;;;;;;;3.77;3.10;;;;;;;6.67;43.00;96803.75;5083422;28;20170;-84
2022/03/18 07:47:58;;;;;;;6.80;3.47;;;;;;;5.58;44.93;96789.91;5073675;28;20210;-85
2022/03/18 07:50:29;;;;;;;6.87;4.10;;;;;;;5.57;46.16;96769.97;5050920;28;20227;-84
2022/03/18 07:52:57;;;;;;;6.70;3.60;;;;;;;5.75;45.67;96754.50;5070330;28;20183;-85
2022/03/18 07:55:27;;;;;;;5.30;3.70;;;;;;;5.99;44.39;96762.81;5054472;28;20170;-85
2022/03/18 07:57:53;;;;;;;4.87;3.40;;;;;;;6.17;44.78;96794.38;5054783;28;20174;-85
2022/03/18 08:00:20;;;;;;;7.27;3.70;;;;;;;5.84;46.15;96749.28;5073688;28;20592;-85
2022/03/18 08:02:48;;;;;;;6.47;3.70;;;;;;;6.38;45.98;96721.84;5055361;28;20180;-85
2022/03/18 08:05:14;;;;;;;7.63;3.83;;;;;;;7.19;42.73;96796.38;5055542;28;20629;-84
2022/03/18 08:07:40;;;;;;;8.47;3.50;;;;;;;7.18;41.75;96764.13;5055216;28;20214;-85
2022/03/18 08:10:08;;;;;;;5.23;3.20;;;;;;;7.29;41.75;96801.59;5073057;28;20240;-85
2022/03/18 08:12:34;;;;;;;7.93;4.20;;;;;;;6.90;42.70;96801.69;5054468;28;20227;-85
2022/03/18 08:15:04;;;;;;;5.73;3.87;;;;;;;6.92;43.42;96767.53;5054104;28;20182;-85
2022/03/18 08:17:29;;;;;;;6.20;3.63;;;;;;;6.94;40.99;96757.72;5072152;28;20254;-86
2022/03/18 08:19:55;;;;;;;5.03;3.30;;;;;;;6.91;42.01;96781.56;5054423;28;20278;-86
2022/03/18 08:22:22;;;;;;;6.67;3.60;;;;;;;6.94;41.35;96776.03;5052869;28;20294;-85
2022/03/18 08:24:51;;;;;;;6.40;4.00;;;;;;;6.83;40.94;96784.88;5053954;28;20189;-85
2022/03/18 08:27:17;;;;;;;5.43;3.60;;;;;;;6.27;43.02;96767.28;5053763;28;20206;-87
2022/03/18 08:29:43;;;;;;;6.37;4.23;;;;;;;5.73;44.05;96752.00;5071309;28;20777;-84
2022/03/18 08:32:12;;;;;;;5.77;3.50;;;;;;;5.96;42.10;96750.88;5071763;28;20181;-87
2022/03/18 08:34:39;;;;;;;5.70;4.03;;;;;;;5.60;42.79;96710.47;5070925;28;20379;-86
2022/03/18 08:37:09;;;;;;;6.80;3.97;;;;;;;5.82;43.23;96745.16;5071464;28;20171;-86
2022/03/18 08:39:43;;;;;;;6.47;3.97;;;;;;;6.40;42.02;96778.28;5071722;28;20185;-85
2022/03/18 08:42:08;;;;;;;4.47;3.40;;;;;;;5.67;39.68;96692.47;5052468;28;20582;-87
2022/03/18 08:44:34;;;;;;;5.70;3.77;;;;;;;6.55;41.04;96722.94;5054480;28;20163;-87
2022/03/18 08:47:00;;;;;;;6.47;3.30;;;;;;;7.18;37.80;96792.94;5074861;28;20185;-84
2022/03/18 08:49:25;;;;;;;6.67;3.47;;;;;;;7.19;37.06;96786.72;5078157;28;20208;-84
2022/03/18 08:51:51;;;;;;;7.13;3.83;;;;;;;6.33;37.73;96698.72;5053448;28;20249;-85
2022/03/18 08:54:21;;;;;;;4.03;3.63;;;;;;;6.08;38.64;96759.41;5054126;28;20184;-87
2022/03/18 08:56:48;;;;;;;6.00;3.10;;;;;;;5.36;40.65;96717.84;5053979;28;20171;-83
2022/03/18 08:59:14;;;;;;;7.67;3.60;;;;;;;6.29;41.22;96778.44;5057134;28;20169;-83
2022/03/18 09:01:39;;;;;;;8.20;4.37;;;;;;;6.63;42.33;96704.75;5077245;28;20178;-83
2022/03/18 09:04:05;;;;;;;7.37;4.23;;;;;;;6.38;39.26;96712.22;5071084;28;20178;-83
2022/03/18 09:06:31;;;;;;;6.40;3.83;;;;;;;6.93;38.09;96774.38;5071468;28;20179;-84
2022/03/18 09:09:02;;;;;;;9.33;4.37;;;;;;;7.33;38.39;96761.06;5071347;28;20212;-85
2022/03/18 09:11:28;;;;;;;6.43;3.83;;;;;;;7.33;38.44;96706.88;5053704;28;20166;-86
2022/03/18 09:13:54;;;;;;;8.77;3.80;;;;;;;7.53;36.89;96718.06;5053301;28;20228;-85
2022/03/18 09:16:19;;;;;;;5.57;3.57;;;;;;;7.63;36.87;96708.34;5071849;28;20218;-84
2022/03/18 09:18:44;;;;;;;5.03;3.87;;;;;;;7.42;38.40;96686.84;5071688;28;20186;-86
2022/03/18 09:21:13;;;;;;;7.10;4.03;;;;;;;7.46;36.58;96711.75;5071334;28;20201;-85
2022/03/18 09:23:39;;;;;;;6.13;3.87;;;;;;;7.20;36.80;96791.00;5071166;28;20643;-84
2022/03/18 09:26:04;;;;;;;5.97;3.70;;;;;;;5.59;38.49;96711.44;5071196;28;20192;-85
2022/03/18 09:28:31;;;;;;;7.97;4.00;;;;;;;5.99;40.67;96773.28;5070942;28;20186;-82
2022/03/18 09:30:57;;;;;;;6.97;3.87;;;;;;;5.67;40.72;96779.50;5071176;28;20666;-84
2022/03/18 09:33:22;;;;;;;6.73;4.17;;;;;;;5.63;41.17;96790.34;5053141;28;20304;-84
2022/03/18 09:35:48;;;;;;;5.93;3.97;;;;;;;5.10;41.39;96780.06;5071317;28;20227;-84
2022/03/18 09:38:13;;;;;;;5.07;3.83;;;;;;;5.12;41.79;96772.94;5071035;28;20163;-86
2022/03/18 09:40:40;;;;;;;7.63;4.17;;;;;;;4.79;42.51;96750.53;5070923;28;20193;-86
2022/03/18 09:43:08;;;;;;;5.23;4.20;;;;;;;4.62;42.80;96774.56;5053419;28;20185;-87
2022/03/18 09:45:38;;;;;;;5.27;3.90;;;;;;;3.92;44.33;96618.75;5070638;28;20189;-86
2022/03/18 09:48:06;;;;;;;5.53;4.50;;;;;;;5.17;42.64;96749.06;5070208;28;20198;-86
2022/03/18 09:50:33;;;;;;;6.03;3.97;;;;;;;5.31;41.06;96726.03;5071253;28;20178;-84
2022/03/18 09:52:59;;;;;;;7.20;4.27;;;;;;;5.60;40.14;96736.59;5070832;28;20163;-84
2022/03/18 09:55:25;;;;;;;6.73;4.40;;;;;;;5.12;41.98;96707.69;5070906;28;20170;-81
2022/03/18 09:57:52;;;;;;;10.93;4.97;;;;;;;5.62;41.99;96737.25;5071011;28;20163;-85
2022/03/18 10:00:18;;;;;;;7.93;4.30;;;;;;;5.26;40.43;96693.47;5072458;28;20171;-85
2022/03/18 10:02:43;;;;;;;7.00;4.17;;;;;;;5.36;40.65;96728.28;5076319;28;21022;-83
2022/03/18 10:05:14;;;;;;;8.90;4.33;;;;;;;5.45;41.41;96750.16;5053979;28;20186;-83
2022/03/18 10:07:53;;;;;;;7.83;4.60;;;;;;;5.65;43.05;96770.97;5050788;28;20578;-85
2022/03/18 10:10:20;;;;;;;9.13;5.90;;;;;;;5.37;43.65;96727.28;5053237;28;20176;-85
2022/03/18 10:12:52;;;;;;;5.33;3.93;;;;;;;5.01;43.83;96697.38;5074899;28;20201;-84
2022/03/18 10:15:22;;;;;;;7.63;4.83;;;;;;;5.59;44.05;96765.47;5084292;28;20216;-84
2022/03/18 10:17:47;;;;;;;8.87;4.53;;;;;;;5.82;44.34;96766.06;5072156;28;20173;-83
2022/03/18 10:20:22;;;;;;;6.23;4.47;;;;;;;5.86;43.57;96768.28;5055596;28;20174;-84
2022/03/18 10:22:48;;;;;;;5.83;4.43;;;;;;;5.86;43.67;96757.84;5073079;28;20235;-85
2022/03/18 10:25:53;;;;;;;9.83;4.57;;;;;;;6.00;43.73;96761.88;5074503;28;20206;-87
2022/03/18 10:28:46;;;;;;;6.87;4.90;;;;;;;5.98;43.46;96758.56;5044847;28;20210;-84
2022/03/18 10:31:23;;;;;;;8.57;4.57;;;;;;;5.81;42.39;96722.59;5074224;28;20170;-85
2022/03/18 10:39:30;;;;;;;7.27;4.10;;;;;;;6.05;42.78;96770.94;5072894;28;20178;-82
2022/03/18 10:41:58;;;;;;;5.57;4.33;;;;;;;5.71;41.95;96713.94;5073073;28;20196;-87
2022/03/18 10:44:23;;;;;;;9.97;4.83;;;;;;;5.99;43.26;96749.75;5073771;28;20184;-84
2022/03/18 10:46:50;;;;;;;8.60;4.67;;;;;;;6.22;43.53;96759.03;5056222;28;20261;-81
2022/03/18 10:49:17;;;;;;;6.53;4.17;;;;;;;6.38;42.53;96768.94;5073713;28;20190;-83
2022/03/18 10:51:43;;;;;;;8.67;4.77;;;;;;;6.23;40.85;96765.88;5073693;28;20225;-82
2022/03/18 10:54:09;;;;;;;9.57;5.10;;;;;;;6.18;40.04;96765.47;5073618;28;20198;-83
2022/03/18 10:56:59;;;;;;;9.10;5.43;;;;;;;6.07;38.65;96765.59;5073812;28;20296;-83
2022/03/18 10:59:27;;;;;;;5.93;4.10;;;;;;;5.86;38.34;96754.38;5073953;28;20170;-85
2022/03/18 11:01:56;;;;;;;6.07;4.10;;;;;;;5.79;38.20;96761.13;5054374;28;20182;-84
2022/03/18 11:04:23;;;;;;;6.43;4.57;;;;;;;5.52;39.06;96712.94;5071277;28;20577;-85
2022/03/18 11:12:25;;;;;;;7.43;3.97;;;;;;;5.87;37.46;96746.41;5074657;28;20174;-87
2022/03/18 11:14:54;;;;;;;8.40;4.07;;;;;;;5.51;38.20;96754.84;5056217;28;20174;-87
2022/03/18 11:17:21;;;;;;;10.87;4.23;;;;;;;5.39;39.52;96699.28;5067699;28;20325;-86
2022/03/18 11:19:47;;;;;;;4.43;3.17;;;;;;;5.45;38.22;96708.38;5072040;28;20178;-87
2022/03/18 11:22:16;;;;;;;6.27;3.80;;;;;;;5.70;37.45;96757.53;5047282;28;20186;-87
2022/03/18 11:24:45;;;;;;;6.70;3.93;;;;;;;5.43;37.52;96713.72;5060888;28;20218;-87
2022/03/18 11:27:12;;;;;;;5.33;3.77;;;;;;;5.58;38.69;96740.28;5067460;28;20193;-87
2022/03/18 11:29:38;;;;;;;6.20;4.20;;;;;;;5.63;38.03;96740.69;5084947;28;20261;-87
2022/03/18 11:32:09;;;;;;;5.43;3.50;;;;;;;5.90;38.73;96740.09;5056477;28;20213;-87
2022/03/18 11:35:03;;;;;;;5.10;3.53;;;;;;;6.00;37.43;96754.84;5064621;28;20321;-87
2022/03/18 11:37:29;;;;;;;7.87;4.10;;;;;;;6.01;36.74;96713.84;5062533;28;20174;-87
2022/03/18 11:40:27;;;;;;;6.70;3.53;;;;;;;5.99;36.37;96736.69;5044219;28;20183;-86
2022/03/18 11:42:54;;;;;;;6.40;3.77;;;;;;;5.75;36.77;96717.91;5063538;28;20219;-87
2022/03/18 11:45:34;;;;;;;6.53;3.80;;;;;;;5.63;37.46;96727.66;5049020;28;20641;-87
2022/03/18 11:48:00;;;;;;;5.40;3.30;;;;;;;5.66;38.20;96707.31;5067686;28;20208;-87
2022/03/18 11:50:43;;;;;;;6.77;4.10;;;;;;;6.02;37.59;96723.34;5052468;28;20644;-87
2022/03/18 11:53:13;;;;;;;6.27;4.30;;;;;;;6.04;37.86;96701.34;5054034;28;20186;-87
2022/03/18 11:55:39;;;;;;;5.23;3.30;;;;;;;5.98;36.87;96682.75;5064257;28;20182;-87
2022/03/18 11:58:26;;;;;;;5.87;3.50;;;;;;;5.64;36.52;96692.72;5063563;28;20202;-88
2022/03/18 12:00:52;;;;;;;6.90;3.73;;;;;;;5.02;37.48;96675.50;5049162;28;20178;-88
2022/03/18 12:03:20;;;;;;;7.53;3.70;;;;;;;5.40;39.79;96723.59;5068307;28;20181;-87